Time;durP1;ratioP1;P1;durP2;ratioP2;P2;SDS_P1;SDS_P2;PMS_P1;PMS_P2;Temp;Humidity;BMP_temperature;BMP_pressure;BME280_temperature;BME280_humidity;BME280_pressure;Samples;Min_cycle;Max_cycle;Signal;HPM_P1;HPM_P2
2021/05/14 00:01:14;;;;;;;5.00;1.70;;;;;;;14.52;76.19;99781.97;5012722;28;20419;-69
2021/05/14 00:03:40;;;;;;;5.13;1.55;;;;;;;14.40;75.41;99777.56;5012833;28;20030;-69
2021/05/14 00:06:05;;;;;;;8.30;2.33;;;;;;;14.41;75.00;99776.34;5012590;28;20349;-68
2021/05/14 00:08:31;;;;;;;5.32;1.85;;;;;;;14.42;75.52;99782.75;5012699;28;20085;-69
2021/05/14 00:10:57;;;;;;;9.07;1.92;;;;;;;14.37;76.16;99781.13;5012797;28;20026;-69
2021/05/14 00:13:23;;;;;;;5.97;1.98;;;;;;;14.42;76.24;99777.94;5012467;28;20415;-68
2021/05/14 00:15:49;;;;;;;4.05;1.35;;;;;;;14.45;76.39;99787.56;5012612;28;20026;-68
2021/05/14 00:18:15;;;;;;;6.53;1.95;;;;;;;14.38;76.36;99781.94;5012375;28;20033;-67
2021/05/14 00:20:45;;;;;;;7.90;1.63;;;;;;;14.43;76.31;99795.53;5012534;28;20077;-69
2021/05/14 00:23:12;;;;;;;6.03;1.50;;;;;;;14.42;76.65;99783.53;5013418;28;20021;-69
2021/05/14 00:25:38;;;;;;;3.85;1.60;;;;;;;14.53;76.18;99786.38;5012622;28;20416;-68
2021/05/14 00:28:03;;;;;;;3.60;1.48;;;;;;;14.48;75.13;99792.38;5012579;28;20036;-69
2021/05/14 00:30:29;;;;;;;5.03;1.30;;;;;;;14.51;75.47;99793.59;5013329;28;20500;-68
2021/05/14 00:32:55;;;;;;;6.25;2.35;;;;;;;14.40;75.71;99790.75;5012632;28;20076;-67
2021/05/14 00:35:20;;;;;;;5.45;1.60;;;;;;;14.29;76.34;99796.34;5012282;28;20026;-68
2021/05/14 00:37:46;;;;;;;6.72;1.98;;;;;;;14.35;75.75;99796.75;5012318;28;20014;-66
2021/05/14 00:40:12;;;;;;;4.40;1.58;;;;;;;14.32;75.54;99787.13;5012301;28;20037;-69
2021/05/14 00:42:37;;;;;;;3.22;1.10;;;;;;;14.24;76.20;99798.72;5012294;28;20026;-68
2021/05/14 00:45:05;;;;;;;5.93;1.65;;;;;;;14.21;76.34;99796.69;5013328;28;20037;-68
2021/05/14 00:47:30;;;;;;;3.08;1.30;;;;;;;14.09;75.19;99786.69;5016191;28;20172;-68
2021/05/14 00:49:56;;;;;;;4.63;1.73;;;;;;;14.07;75.03;99783.50;5016641;28;20092;-68
2021/05/14 00:52:22;;;;;;;3.88;1.58;;;;;;;14.23;74.86;99789.53;5015850;28;20528;-69
2021/05/14 00:54:49;;;;;;;6.88;1.83;;;;;;;14.26;73.96;99791.50;5016700;28;20021;-67
2021/05/14 00:57:16;;;;;;;7.70;2.05;;;;;;;14.28;74.18;99782.75;5016095;28;20033;-68
2021/05/14 00:59:46;;;;;;;3.42;1.67;;;;;;;14.35;73.85;99772.34;5017401;28;20022;-68
2021/05/14 01:02:13;;;;;;;7.75;2.03;;;;;;;14.31;74.59;99779.94;5016083;28;20100;-67
2021/05/14 01:04:40;;;;;;;1.70;1.33;;;;;;;14.24;75.03;99771.53;5016474;28;20022;-67
2021/05/14 01:07:06;;;;;;;4.45;2.05;;;;;;;14.30;74.61;99774.75;5016305;28;20041;-68
2021/05/14 01:09:32;;;;;;;4.75;1.40;;;;;;;14.19;74.22;99788.72;5015933;28;20364;-68
2021/05/14 01:11:58;;;;;;;6.80;1.95;;;;;;;14.14;74.02;99781.50;5016932;28;20034;-67
2021/05/14 01:14:24;;;;;;;2.65;1.45;;;;;;;14.21;72.03;99775.13;5015939;28;20100;-68
2021/05/14 01:16:50;;;;;;;6.68;2.10;;;;;;;14.19;70.72;99773.94;5015949;28;20053;-68
2021/05/14 01:19:16;;;;;;;3.70;1.65;;;;;;;14.14;71.33;99764.72;5015773;28;20022;-67
2021/05/14 01:21:41;;;;;;;3.55;1.23;;;;;;;14.09;70.13;99779.09;5015506;28;20033;-68
2021/05/14 01:24:08;;;;;;;9.07;1.58;;;;;;;14.19;70.99;99782.31;5016004;28;20117;-69
2021/05/14 01:26:33;;;;;;;3.25;1.30;;;;;;;14.19;70.32;99773.94;5016492;28;20040;-69
2021/05/14 01:29:00;;;;;;;4.78;1.42;;;;;;;14.07;70.20;99770.31;5015760;28;20112;-68
2021/05/14 01:31:26;;;;;;;3.65;1.60;;;;;;;14.13;67.21;99776.31;5016944;28;20025;-69
2021/05/14 01:33:51;;;;;;;2.20;1.10;;;;;;;14.24;67.75;99776.34;5015171;28;20053;-68
2021/05/14 01:36:18;;;;;;;2.83;1.23;;;;;;;14.19;67.78;99776.72;5015281;28;20472;-70
2021/05/14 01:38:44;;;;;;;5.60;1.60;;;;;;;14.04;66.14;99767.50;5015221;28;20030;-69
2021/05/14 01:41:10;;;;;;;6.82;1.75;;;;;;;14.07;66.62;99772.31;5015257;28;20030;-68
2021/05/14 01:43:37;;;;;;;6.70;1.67;;;;;;;14.10;66.01;99775.09;5015131;28;20071;-69
2021/05/14 01:46:04;;;;;;;8.55;2.63;;;;;;;14.29;66.19;99770.34;5015208;28;20435;-68
2021/05/14 01:48:30;;;;;;;6.88;2.95;;;;;;;14.22;65.28;99778.72;5016052;28;20029;-68
2021/05/14 01:51:03;;;;;;;3.25;1.90;;;;;;;14.18;65.23;99769.53;5015017;28;20356;-68
2021/05/14 01:53:28;;;;;;;4.40;1.83;;;;;;;14.12;62.38;99769.94;5015961;28;20116;-68
2021/05/14 01:55:54;;;;;;;5.22;1.48;;;;;;;14.12;63.19;99753.13;5015035;28;20177;-68
2021/05/14 01:58:19;;;;;;;2.55;1.25;;;;;;;14.11;64.29;99751.53;5013936;28;20029;-68
2021/05/14 02:00:45;;;;;;;5.97;2.45;;;;;;;14.15;65.22;99768.31;5014800;28;20041;-67
2021/05/14 02:03:10;;;;;;;4.38;1.60;;;;;;;14.14;64.47;99767.53;5014853;28;20460;-68
2021/05/14 02:05:36;;;;;;;7.35;1.88;;;;;;;14.10;63.41;99766.72;5014681;28;20037;-68
2021/05/14 02:08:01;;;;;;;3.63;1.80;;;;;;;13.99;63.88;99774.28;5014751;28;20477;-67
2021/05/14 02:10:27;;;;;;;6.93;2.22;;;;;;;13.88;64.04;99777.03;5014672;28;20022;-67
2021/05/14 02:12:52;;;;;;;4.28;1.67;;;;;;;13.77;63.61;99778.22;5014549;28;20029;-67
2021/05/14 02:15:18;;;;;;;1.40;1.30;;;;;;;13.69;63.89;99770.97;5014695;28;20068;-67
2021/05/14 02:17:44;;;;;;;3.78;1.20;;;;;;;13.67;64.03;99770.59;5014381;28;20457;-68
2021/05/14 02:20:11;;;;;;;5.00;1.92;;;;;;;13.72;64.62;99767.41;5014576;28;20049;-67
2021/05/14 02:22:36;;;;;;;2.05;1.08;;;;;;;13.53;64.89;99766.56;5014501;28;20480;-67
2021/05/14 02:25:02;;;;;;;5.03;1.40;;;;;;;13.54;65.28;99772.94;5014379;28;20025;-68
2021/05/14 02:27:28;;;;;;;2.17;1.27;;;;;;;13.48;66.07;99769.72;5014346;28;20026;-68
2021/05/14 02:29:54;;;;;;;5.15;1.60;;;;;;;13.32;66.96;99783.22;5014214;28;20032;-67
2021/05/14 02:32:21;;;;;;;6.70;1.67;;;;;;;13.28;66.69;99782.38;5014370;28;20025;-68
2021/05/14 02:34:47;;;;;;;4.10;1.73;;;;;;;13.03;66.14;99785.78;5014348;28;20476;-68
2021/05/14 02:37:13;;;;;;;5.35;1.40;;;;;;;12.98;66.85;99791.75;5013860;28;20060;-68
2021/05/14 02:39:38;;;;;;;2.63;1.30;;;;;;;12.93;67.95;99789.31;5014033;28;20083;-68
2021/05/14 02:42:04;;;;;;;3.03;1.50;;;;;;;12.77;67.35;99784.00;5014044;28;20021;-68
2021/05/14 02:44:30;;;;;;;5.43;1.70;;;;;;;12.75;66.99;99799.56;5014119;28;20037;-68
2021/05/14 02:46:55;;;;;;;5.93;1.50;;;;;;;12.73;67.39;99796.34;5013865;28;20380;-68
2021/05/14 02:49:21;;;;;;;3.83;1.48;;;;;;;12.74;67.58;99792.38;5014036;28;20065;-68
2021/05/14 02:51:49;;;;;;;2.47;1.40;;;;;;;12.88;68.79;99800.84;5013705;28;20365;-69
2021/05/14 02:54:15;;;;;;;4.20;1.65;;;;;;;12.88;68.99;99795.25;5013959;28;20377;-67
2021/05/14 02:56:41;;;;;;;2.60;1.10;;;;;;;13.03;69.63;99804.53;5013585;28;20026;-68
2021/05/14 02:59:06;;;;;;;4.05;1.85;;;;;;;13.01;68.95;99796.56;5013924;28;20022;-68
2021/05/14 03:01:32;;;;;;;4.00;1.77;;;;;;;13.03;70.14;99810.94;4997545;28;20373;-68
2021/05/14 03:03:58;;;;;;;4.75;2.38;;;;;;;13.09;70.07;99803.78;5013649;28;20028;-68
2021/05/14 03:06:23;;;;;;;12.70;3.90;;;;;;;13.17;69.52;99799.06;5013478;28;20033;-68
2021/05/14 03:08:52;;;;;;;7.30;3.33;;;;;;;13.13;69.42;99803.03;5013416;28;20400;-68
2021/05/14 03:11:17;;;;;;;3.88;2.05;;;;;;;13.05;69.66;99807.78;5013724;28;20038;-68
2021/05/14 03:13:43;;;;;;;2.67;1.23;;;;;;;12.95;68.33;99809.28;5013512;28;20026;-69
2021/05/14 03:16:09;;;;;;;5.40;2.05;;;;;;;12.91;68.84;99814.03;5013778;28;20053;-68
2021/05/14 03:18:34;;;;;;;2.67;0.90;;;;;;;12.86;68.95;99811.59;5013452;28;20363;-67
2021/05/14 03:21:00;;;;;;;5.28;1.63;;;;;;;12.84;69.92;99808.41;5013627;28;20033;-68
2021/05/14 03:23:26;;;;;;;5.40;1.38;;;;;;;12.76;70.38;99806.75;5014039;28;20421;-68
2021/05/14 03:25:52;;;;;;;3.75;1.38;;;;;;;12.72;70.57;99805.91;5015147;28;20032;-71
2021/05/14 03:28:20;;;;;;;6.32;1.65;;;;;;;12.69;71.29;99812.28;5013602;28;20109;-68
2021/05/14 03:30:46;;;;;;;7.03;1.73;;;;;;;12.66;71.31;99819.41;5013513;28;20030;-68
2021/05/14 03:33:20;;;;;;;4.55;1.77;;;;;;;12.58;71.18;99826.13;5013278;28;20053;-69
2021/05/14 03:35:45;;;;;;;4.05;1.33;;;;;;;12.54;71.50;99830.88;5013314;28;20419;-74
2021/05/14 03:38:11;;;;;;;7.97;2.13;;;;;;;12.74;71.74;99826.69;5013002;28;20077;-68
2021/05/14 03:40:37;;;;;;;10.30;1.55;;;;;;;12.70;71.75;99825.84;5013244;28;20353;-68
2021/05/14 03:43:04;;;;;;;9.95;1.90;;;;;;;12.72;71.01;99836.59;5012904;28;20022;-67
2021/05/14 03:45:30;;;;;;;5.45;1.75;;;;;;;12.66;72.24;99832.56;5013944;28;20041;-68
2021/05/14 03:47:57;;;;;;;4.18;1.90;;;;;;;12.64;72.00;99837.75;5012923;28;20017;-68
2021/05/14 03:50:27;;;;;;;4.63;1.40;;;;;;;12.55;72.23;99824.09;5014115;28;20401;-68
2021/05/14 03:52:54;;;;;;;7.82;1.77;;;;;;;12.58;72.28;99837.31;5013830;28;20060;-69
2021/05/14 03:55:19;;;;;;;5.72;2.10;;;;;;;12.33;73.01;99848.22;5012807;28;20026;-68
2021/05/14 03:57:46;;;;;;;2.95;1.30;;;;;;;12.37;72.76;99845.47;5012851;28;20491;-68
2021/05/14 04:00:12;;;;;;;8.00;2.05;;;;;;;12.40;72.98;99833.53;5012652;28;20053;-68
2021/05/14 04:02:38;;;;;;;5.25;1.98;;;;;;;12.30;73.62;99841.44;5012810;28;20353;-69
2021/05/14 04:05:04;;;;;;;5.32;2.03;;;;;;;12.30;74.17;99854.53;5012655;28;20079;-69
2021/05/14 04:07:30;;;;;;;8.02;2.40;;;;;;;12.37;74.54;99840.69;5012605;28;20038;-69
2021/05/14 04:10:12;;;;;;;7.72;2.75;;;;;;;12.39;73.62;99843.09;5012703;28;20029;-69
2021/05/14 04:15:05;;;;;;;8.05;2.03;;;;;;;12.92;72.80;99842.75;5013801;28;20121;-69
2021/05/14 04:17:31;;;;;;;4.30;1.65;;;;;;;13.13;71.24;99848.50;5012506;28;20022;-69
2021/05/14 04:19:58;;;;;;;9.07;1.92;;;;;;;13.27;70.25;99817.91;5011893;28;20045;-69
2021/05/14 04:22:24;;;;;;;9.73;2.15;;;;;;;14.09;67.90;99849.03;5012662;28;20096;-68
2021/05/14 04:24:50;;;;;;;3.72;1.48;;;;;;;14.59;64.96;99849.16;4996232;28;20060;-68
2021/05/14 04:27:15;;;;;;;3.67;1.50;;;;;;;15.06;63.67;99849.19;5012444;28;20112;-69
2021/05/14 04:29:42;;;;;;;12.38;2.03;;;;;;;15.31;62.16;99849.16;5012639;28;20099;-69
2021/05/14 04:32:07;;;;;;;6.68;2.17;;;;;;;15.92;60.50;99856.22;5012364;28;20069;-69
2021/05/14 04:34:33;;;;;;;4.38;1.55;;;;;;;16.22;59.06;99852.09;5012415;28;20116;-68
2021/05/14 04:36:58;;;;;;;8.65;1.95;;;;;;;16.43;58.44;99851.97;5012489;28;20022;-68
2021/05/14 04:39:24;;;;;;;5.55;2.60;;;;;;;17.00;57.09;99850.78;5012224;28;20049;-70
2021/05/14 04:41:49;;;;;;;7.32;2.97;;;;;;;17.67;54.58;99854.91;5011989;28;20034;-69
2021/05/14 04:44:16;;;;;;;7.72;2.25;;;;;;;17.99;53.67;99848.13;5011663;28;20036;-69
2021/05/14 04:46:42;;;;;;;7.30;2.13;;;;;;;18.82;52.67;99851.41;5012047;28;20029;-68
2021/05/14 04:49:07;;;;;;;4.45;1.83;;;;;;;19.27;51.55;99849.03;5011860;28;20499;-68
2021/05/14 04:51:33;;;;;;;13.25;3.03;;;;;;;19.96;49.59;99840.06;5011628;28;20077;-65
2021/05/14 04:54:00;;;;;;;8.05;1.30;;;;;;;20.47;47.53;99847.06;5011582;28;20026;-70
2021/05/14 04:56:25;;;;;;;7.38;1.85;;;;;;;20.49;46.51;99855.09;5011787;28;20030;-68
2021/05/14 04:58:51;;;;;;;5.80;1.75;;;;;;;21.23;45.26;99858.13;5011979;28;20041;-69
2021/05/14 05:01:18;;;;;;;6.55;1.92;;;;;;;20.96;45.53;99866.13;5011608;28;20427;-65
2021/05/14 05:03:52;;;;;;;5.03;1.80;;;;;;;21.09;45.74;99872.63;5011868;28;20024;-68
2021/05/14 05:06:18;;;;;;;9.90;2.70;;;;;;;20.74;45.99;99875.09;5008810;28;20053;-68
2021/05/14 05:08:44;;;;;;;8.75;2.35;;;;;;;20.70;45.90;99876.41;5011950;28;20470;-68
2021/05/14 05:11:09;;;;;;;4.82;2.17;;;;;;;20.69;45.88;99872.00;5011347;28;20536;-69
2021/05/14 05:13:35;;;;;;;7.57;2.78;;;;;;;20.91;46.05;99879.53;5027826;28;20049;-68
2021/05/14 05:16:01;;;;;;;6.75;1.88;;;;;;;20.59;46.94;99876.66;5011829;28;20037;-68
2021/05/14 05:18:27;;;;;;;8.35;1.77;;;;;;;21.44;45.61;99877.41;5011408;28;20349;-66
2021/05/14 05:20:53;;;;;;;4.35;1.80;;;;;;;21.42;45.23;99873.47;5011344;28;20030;-66
2021/05/14 05:23:19;;;;;;;5.30;1.70;;;;;;;21.38;45.66;99884.84;5011365;28;20029;-67
2021/05/14 05:25:44;;;;;;;6.78;1.98;;;;;;;21.34;46.54;99886.19;5011411;28;20026;-67
2021/05/14 05:28:10;;;;;;;5.38;2.10;;;;;;;21.54;45.13;99891.75;5011316;28;20030;-67
2021/05/14 05:30:35;;;;;;;3.85;1.90;;;;;;;22.14;43.79;99898.56;5011179;28;20037;-67
2021/05/14 05:33:01;;;;;;;5.20;1.65;;;;;;;22.24;43.14;99896.69;5013182;28;20084;-67
2021/05/14 05:35:26;;;;;;;2.85;1.85;;;;;;;21.21;47.92;99888.91;5014756;28;20029;-67
2021/05/14 05:37:53;;;;;;;10.43;3.63;;;;;;;20.95;49.15;99898.47;5015001;28;20026;-67
2021/05/14 05:40:20;;;;;;;7.60;2.00;;;;;;;21.61;48.11;99888.72;5014599;28;20030;-69
2021/05/14 05:42:45;;;;;;;6.25;2.05;;;;;;;21.68;47.60;99894.19;5014981;28;20401;-67
2021/05/14 05:45:11;;;;;;;6.55;2.20;;;;;;;22.60;45.41;99895.59;5014997;28;20133;-68
2021/05/14 05:47:37;;;;;;;3.63;1.45;;;;;;;22.60;44.48;99904.13;5014379;28;20079;-67
2021/05/14 05:50:04;;;;;;;3.90;1.88;;;;;;;22.98;43.13;99910.63;5014536;28;20087;-67
2021/05/14 05:52:29;;;;;;;3.30;1.58;;;;;;;22.26;44.11;99911.19;5014092;28;20054;-69
2021/05/14 05:54:55;;;;;;;6.13;1.75;;;;;;;22.95;43.26;99917.19;5014509;28;20033;-67
2021/05/14 05:57:20;;;;;;;4.75;2.00;;;;;;;23.22;41.88;99913.91;5014235;28;20060;-67
2021/05/14 05:59:46;;;;;;;3.80;1.85;;;;;;;23.59;40.31;99907.78;5014238;28;20030;-67
2021/05/14 06:02:11;;;;;;;8.57;2.00;;;;;;;23.96;39.90;99915.41;5014307;28;20030;-66
2021/05/14 06:04:38;;;;;;;8.93;2.10;;;;;;;24.38;39.24;99920.00;5013808;28;20399;-68
2021/05/14 06:07:03;;;;;;;9.55;2.20;;;;;;;23.86;39.46;99927.94;5014367;28;20124;-67
2021/05/14 06:09:29;;;;;;;5.70;2.35;;;;;;;23.26;40.29;99930.78;5014031;28;20520;-68
2021/05/14 06:11:54;;;;;;;4.78;2.10;;;;;;;23.05;41.40;99920.13;5013591;28;20026;-67
2021/05/14 06:14:20;;;;;;;8.13;1.85;;;;;;;22.09;43.27;99929.47;5013461;28;20057;-68
2021/05/14 06:16:46;;;;;;;8.98;2.80;;;;;;;21.74;44.94;99931.25;5013737;28;20037;-67
2021/05/14 06:19:16;;;;;;;7.40;3.78;;;;;;;20.60;48.90;99929.13;5014192;28;20033;-66
2021/05/14 06:21:46;;;;;;;7.85;3.55;;;;;;;21.25;48.60;99937.69;5013446;28;20085;-66
2021/05/14 06:24:16;;;;;;;5.18;2.03;;;;;;;22.11;44.93;99938.34;5013884;28;20048;-66
2021/05/14 06:26:43;;;;;;;8.13;3.15;;;;;;;22.49;42.73;99942.09;4997191;28;20036;-66
2021/05/14 06:29:09;;;;;;;8.40;2.08;;;;;;;22.13;42.08;99942.31;5014630;28;20053;-66
2021/05/14 06:31:35;;;;;;;8.00;2.25;;;;;;;20.85;46.05;99940.69;5013485;28;20034;-68
2021/05/14 06:34:01;;;;;;;8.23;2.58;;;;;;;20.98;46.26;99934.31;5013778;28;20089;-67
2021/05/14 06:36:26;;;;;;;4.68;2.58;;;;;;;20.48;46.31;99932.63;5013605;28;20037;-67
2021/05/14 06:38:52;;;;;;;9.80;1.90;;;;;;;21.21;45.26;99934.19;5013531;28;20018;-67
2021/05/14 06:41:21;;;;;;;5.70;1.73;;;;;;;22.18;42.70;99949.47;5013517;28;20380;-67
2021/05/14 06:43:47;;;;;;;6.28;2.60;;;;;;;22.95;40.93;99947.59;5012967;28;20064;-66
2021/05/14 06:46:12;;;;;;;5.22;1.55;;;;;;;22.16;42.45;99949.94;5013804;28;20065;-66
2021/05/14 06:48:38;;;;;;;3.28;1.33;;;;;;;22.58;40.68;99949.91;5013188;28;20025;-67
2021/05/14 06:51:04;;;;;;;5.72;1.67;;;;;;;22.45;40.68;99947.06;5013031;28;20142;-66
2021/05/14 06:53:30;;;;;;;3.63;1.50;;;;;;;22.63;40.12;99951.41;5015037;28;20033;-67
2021/05/14 06:55:56;;;;;;;5.38;1.45;;;;;;;23.13;39.65;99973.38;5012813;28;20484;-66
2021/05/14 06:58:22;;;;;;;10.38;1.90;;;;;;;24.15;37.98;99966.72;5013172;28;20113;-69
2021/05/14 07:00:47;;;;;;;6.20;1.90;;;;;;;24.41;36.13;99973.88;5012954;28;20029;-67
2021/05/14 07:03:14;;;;;;;2.28;1.30;;;;;;;23.94;36.27;99971.91;5013314;28;20424;-67
2021/05/14 07:05:43;;;;;;;5.13;1.75;;;;;;;22.96;38.46;99981.22;5012977;28;20431;-67
2021/05/14 07:08:09;;;;;;;6.53;1.50;;;;;;;23.27;38.10;99974.94;5013165;28;20109;-67
2021/05/14 07:10:35;;;;;;;5.28;1.80;;;;;;;23.97;37.56;99971.00;5014490;28;20045;-67
2021/05/14 07:13:00;;;;;;;3.95;1.40;;;;;;;24.94;35.22;99979.59;5012701;28;20417;-67
2021/05/14 07:15:26;;;;;;;2.92;1.27;;;;;;;24.94;34.67;99973.91;5012752;28;20092;-66
2021/05/14 07:17:55;;;;;;;5.60;2.05;;;;;;;24.16;35.66;99988.19;5012533;28;20021;-67
2021/05/14 07:20:20;;;;;;;5.97;1.55;;;;;;;23.27;36.75;99989.94;5012721;28;20038;-67
2021/05/14 07:22:47;;;;;;;3.88;1.33;;;;;;;23.57;37.50;99989.81;5012860;28;20041;-68
2021/05/14 07:25:12;;;;;;;5.47;1.70;;;;;;;23.95;37.08;99987.69;5012827;28;20056;-67
2021/05/14 07:27:38;;;;;;;4.18;1.15;;;;;;;25.04;34.75;99986.13;5013020;28;20053;-67
2021/05/14 07:30:09;;;;;;;3.10;1.23;;;;;;;25.20;33.35;99985.91;5012598;28;20037;-67
2021/05/14 07:32:35;;;;;;;6.57;1.90;;;;;;;24.31;36.40;99992.09;5013628;28;20054;-67
2021/05/14 07:35:01;;;;;;;4.95;1.73;;;;;;;24.08;37.41;99995.41;5012695;28;20116;-69
2021/05/14 07:37:29;;;;;;;4.18;1.60;;;;;;;23.22;38.67;99992.53;5012645;28;20113;-67
2021/05/14 07:39:55;;;;;;;3.10;2.00;;;;;;;23.03;39.55;99996.41;5012771;28;20487;-68
2021/05/14 07:42:20;;;;;;;5.68;1.85;;;;;;;23.76;37.93;99992.41;5012622;28;20060;-67
2021/05/14 07:44:47;;;;;;;4.88;1.50;;;;;;;23.73;38.63;99981.97;5012695;28;20029;-68
2021/05/14 07:47:12;;;;;;;4.88;1.35;;;;;;;24.16;37.91;99991.81;5012521;28;20033;-68
2021/05/14 07:49:38;;;;;;;4.72;1.67;;;;;;;23.64;37.96;99995.25;5012595;28;20037;-69
2021/05/14 07:52:04;;;;;;;7.03;1.75;;;;;;;24.11;36.26;99980.25;5012167;28;20132;-68
2021/05/14 07:54:30;;;;;;;5.68;1.55;;;;;;;23.89;35.38;99989.53;5012109;28;20037;-68
2021/05/14 07:56:55;;;;;;;6.55;1.30;;;;;;;24.39;34.81;99993.44;5012104;28;20096;-68
2021/05/14 07:59:21;;;;;;;4.05;1.58;;;;;;;24.93;33.94;99991.41;5012594;28;20026;-69
2021/05/14 08:01:47;;;;;;;6.05;1.30;;;;;;;24.43;33.56;99985.59;5012850;28;20116;-67
2021/05/14 08:04:16;;;;;;;2.17;1.10;;;;;;;25.41;32.77;99983.41;4996033;28;20026;-68
2021/05/14 08:06:42;;;;;;;3.25;1.15;;;;;;;25.37;33.40;99975.03;5012279;28;20053;-68
2021/05/14 08:09:10;;;;;;;5.32;1.75;;;;;;;24.88;34.48;99974.97;5013325;28;20049;-69
2021/05/14 08:11:38;;;;;;;4.07;1.33;;;;;;;25.27;34.36;99982.75;5012508;28;20052;-67
2021/05/14 08:14:04;;;;;;;3.35;1.42;;;;;;;25.37;34.32;99985.66;5011998;28;20026;-68
2021/05/14 08:16:30;;;;;;;4.28;1.40;;;;;;;25.27;34.91;99964.88;5011893;28;20045;-67
2021/05/14 08:18:56;;;;;;;4.75;1.63;;;;;;;24.60;36.03;99982.53;5012018;28;20028;-68
2021/05/14 08:21:22;;;;;;;4.45;1.38;;;;;;;24.40;36.02;99985.75;5011854;28;20064;-68
2021/05/14 08:23:48;;;;;;;8.73;2.08;;;;;;;23.59;37.36;99995.81;5012296;28;20026;-68
2021/05/14 08:26:14;;;;;;;7.20;1.67;;;;;;;23.74;37.05;99991.28;5012140;28;20881;-68
2021/05/14 08:28:41;;;;;;;5.18;1.73;;;;;;;23.96;36.83;99988.47;5012368;28;20021;-67
2021/05/14 08:31:06;;;;;;;8.02;2.72;;;;;;;23.20;37.85;99987.34;5011888;28;20033;-68
2021/05/14 08:33:32;;;;;;;5.07;1.58;;;;;;;23.78;37.16;99995.59;5012150;28;20030;-67
2021/05/14 08:35:57;;;;;;;4.32;1.67;;;;;;;24.21;35.92;99993.28;5012005;28;20426;-68
2021/05/14 08:38:25;;;;;;;8.63;1.40;;;;;;;24.02;36.77;99981.78;5011841;28;20022;-67
2021/05/14 08:40:50;;;;;;;4.97;1.60;;;;;;;23.61;36.18;99991.28;5012027;28;20054;-67
2021/05/14 08:43:16;;;;;;;2.42;1.40;;;;;;;24.07;35.76;99993.78;5011834;28;20065;-67
2021/05/14 08:45:42;;;;;;;5.15;1.88;;;;;;;24.16;34.36;100002.41;5011838;28;20030;-66
2021/05/14 08:48:12;;;;;;;4.95;1.55;;;;;;;25.00;33.68;99999.69;5011626;28;20029;-66
2021/05/14 08:50:38;;;;;;;4.80;1.80;;;;;;;24.95;35.28;99992.56;5011899;28;20445;-67
2021/05/14 08:53:04;;;;;;;3.78;1.20;;;;;;;25.21;34.04;99989.53;5011066;28;20046;-67
2021/05/14 08:55:30;;;;;;;6.75;1.67;;;;;;;24.67;33.36;100002.19;5011790;28;20430;-67
2021/05/14 08:57:55;;;;;;;5.68;1.30;;;;;;;24.88;33.81;99995.69;5011312;28;20029;-66
2021/05/14 09:00:24;;;;;;;7.80;1.77;;;;;;;24.56;34.48;100003.38;5011461;28;20436;-65
2021/05/14 09:02:51;;;;;;;4.57;1.88;;;;;;;24.71;34.57;100006.47;5011524;28;20091;-69
2021/05/14 09:05:23;;;;;;;3.05;1.10;;;;;;;24.55;33.76;100004.66;5012737;28;20434;-68
2021/05/14 09:07:49;;;;;;;3.05;1.48;;;;;;;24.71;33.87;100002.81;5015440;28;20354;-68
2021/05/14 09:10:15;;;;;;;3.78;1.15;;;;;;;24.41;34.20;100004.38;5015053;28;20018;-69
2021/05/14 09:12:44;;;;;;;10.63;1.70;;;;;;;23.88;36.24;100012.72;5015630;28;20025;-68
2021/05/14 09:15:29;;;;;;;4.93;1.55;;;;;;;23.12;37.62;100000.19;5016477;28;20553;-73
2021/05/14 09:18:20;;;;;;;6.07;1.52;;;;;;;23.42;37.48;99995.94;5015240;28;20097;-67
2021/05/14 09:20:54;;;;;;;6.90;1.35;;;;;;;23.20;37.47;99997.91;5015340;28;20022;-67
2021/05/14 09:23:20;;;;;;;2.90;1.08;;;;;;;23.24;36.53;99998.59;5014981;28;20033;-67
2021/05/14 09:25:58;;;;;;;4.55;1.50;;;;;;;23.79;35.96;99993.53;5015446;28;20022;-68
2021/05/14 09:28:32;;;;;;;5.65;1.65;;;;;;;23.48;35.97;99979.91;5014891;28;20030;-67
2021/05/14 09:31:06;;;;;;;5.50;1.38;;;;;;;24.29;34.93;99995.41;5015078;28;20029;-67
2021/05/14 09:33:33;;;;;;;1.73;1.25;;;;;;;23.84;35.34;100003.53;5015041;28;20084;-67
2021/05/14 09:36:03;;;;;;;5.32;1.50;;;;;;;23.07;34.83;99997.09;5016086;28;20353;-67
2021/05/14 09:38:43;;;;;;;6.47;1.65;;;;;;;23.79;34.90;100002.84;5014617;28;20460;-67
2021/05/14 09:41:33;;;;;;;3.47;1.75;;;;;;;23.43;35.82;100013.78;5011865;28;20100;-65
2021/05/14 09:44:10;;;;;;;3.35;1.50;;;;;;;23.43;35.68;100019.44;5015657;28;20042;-66
2021/05/14 09:46:44;;;;;;;3.30;1.15;;;;;;;24.10;33.92;100022.09;5014646;28;20018;-67
2021/05/14 09:49:11;;;;;;;5.03;1.45;;;;;;;24.24;33.29;100003.75;5014714;28;20038;-67
2021/05/14 09:52:06;;;;;;;3.38;0.82;;;;;;;24.17;33.54;100033.19;5014298;28;20042;-67
2021/05/14 09:54:35;;;;;;;4.50;1.33;;;;;;;24.89;32.65;100025.72;5014459;28;20021;-67
2021/05/14 10:00:07;;;;;;;2.50;1.20;;;;;;;24.25;34.17;100039.44;5015215;28;20137;-68
2021/05/14 10:02:36;;;;;;;2.45;1.17;;;;;;;24.26;31.13;100041.03;5013827;28;20061;-67
2021/05/14 10:05:04;;;;;;;3.25;1.85;;;;;;;24.79;29.98;100039.09;5015602;28;20057;-67
2021/05/14 10:07:32;;;;;;;3.97;1.10;;;;;;;24.48;30.13;100030.50;5014200;28;20477;-67
2021/05/14 10:10:01;;;;;;;3.58;0.93;;;;;;;24.93;31.69;100026.38;5014594;28;20022;-68
2021/05/14 10:12:27;;;;;;;5.10;1.20;;;;;;;25.43;30.31;100032.97;5015483;28;20495;-68
2021/05/14 10:14:56;;;;;;;22.42;2.80;;;;;;;25.73;27.95;100031.34;5014056;28;20049;-67
2021/05/14 10:17:21;;;;;;;9.50;1.30;;;;;;;25.06;27.41;100012.09;5013785;28;20461;-67
2021/05/14 10:19:49;;;;;;;18.83;2.85;;;;;;;25.44;28.23;100023.16;5013489;28;20120;-67
2021/05/14 10:22:16;;;;;;;4.55;0.93;;;;;;;25.48;27.75;100018.13;5014042;28;20033;-67
2021/05/14 10:24:42;;;;;;;3.03;1.00;;;;;;;24.40;26.89;100017.00;4997591;28;20029;-67
2021/05/14 10:27:19;;;;;;;2.97;1.20;;;;;;;24.94;27.78;100019.44;5013976;28;20030;-67
2021/05/14 10:29:46;;;;;;;2.70;1.33;;;;;;;25.00;28.38;100013.94;5013763;28;20029;-66
2021/05/14 10:32:13;;;;;;;4.88;1.20;;;;;;;25.91;26.75;100022.03;5014000;28;20034;-68
2021/05/14 10:34:39;;;;;;;3.85;1.00;;;;;;;25.82;27.05;100011.41;5014150;28;20107;-68
2021/05/14 10:37:05;;;;;;;3.03;1.40;;;;;;;24.14;28.81;100016.28;5014008;28;20033;-70
2021/05/14 10:39:31;;;;;;;5.10;1.15;;;;;;;24.11;31.68;100022.88;5013927;28;20037;-69
2021/05/14 10:42:00;;;;;;;14.07;2.40;;;;;;;25.00;27.67;100031.78;5013373;28;20030;-68
2021/05/14 10:44:47;;;;;;;5.22;1.33;;;;;;;24.26;29.64;100029.66;5013481;28;20061;-68
2021/05/14 10:47:25;;;;;;;2.80;0.90;;;;;;;24.83;29.45;100004.81;5013338;28;20049;-69
2021/05/14 10:50:04;;;;;;;4.53;0.82;;;;;;;24.23;27.87;100031.34;5013326;28;20026;-68
2021/05/14 10:52:32;;;;;;;3.38;1.08;;;;;;;25.29;26.05;100019.28;5014527;28;20133;-69
2021/05/14 10:54:57;;;;;;;2.85;1.08;;;;;;;24.50;28.07;100016.63;5013326;28;20048;-68
2021/05/14 10:57:38;;;;;;;3.08;1.05;;;;;;;24.78;26.70;100013.97;5012996;28;20030;-69
2021/05/14 11:00:22;;;;;;;1.95;0.88;;;;;;;24.48;29.39;100019.13;5013285;28;20493;-67
2021/05/14 11:03:10;;;;;;;2.40;1.38;;;;;;;25.25;29.21;100010.13;5013018;28;20026;-66
2021/05/14 11:05:40;;;;;;;2.38;1.20;;;;;;;23.99;31.90;100005.41;5012813;28;20119;-67
2021/05/14 11:08:08;;;;;;;3.53;1.08;;;;;;;23.47;32.16;100000.25;5013665;28;20045;-68
2021/05/14 11:10:35;;;;;;;2.03;1.17;;;;;;;24.29;31.58;100001.09;5013064;28;20029;-68
2021/05/14 11:13:39;;;;;;;2.25;0.85;;;;;;;24.90;30.99;99995.22;5014717;28;20029;-68
2021/05/14 11:16:23;;;;;;;;;;;;;;;24.50;32.08;99998.75;5013152;28;20024;-67
2021/05/14 11:18:50;;;;;;;4.05;1.02;;;;;;;24.11;30.48;100000.16;5013016;28;19909;-68
2021/05/14 11:21:18;;;;;;;2.45;0.90;;;;;;;24.47;30.44;99980.56;5013030;28;20514;-68
2021/05/14 11:23:44;;;;;;;2.95;1.10;;;;;;;24.17;29.55;99981.25;5012746;28;20394;-67
2021/05/14 11:26:18;;;;;;;2.53;0.90;;;;;;;24.45;29.69;99994.47;5012984;28;20028;-67
2021/05/14 11:28:51;;;;;;;3.80;1.27;;;;;;;23.83;31.78;99994.22;5012529;28;20456;-68
2021/05/14 11:31:24;;;;;;;2.75;1.30;;;;;;;23.95;31.17;99982.00;5012647;28;20025;-67
2021/05/14 11:33:52;;;;;;;2.58;1.70;;;;;;;22.70;30.33;99985.22;5012435;28;20456;-68
2021/05/14 11:36:18;;;;;;;1.40;0.60;;;;;;;23.10;29.74;99996.19;5012833;28;20053;-68
2021/05/14 11:38:56;;;;;;;3.38;1.30;;;;;;;23.27;29.80;99989.94;5012395;28;20022;-68